Time;durP1;ratioP1;P1;durP2;ratioP2;P2;SDS_P1;SDS_P2;PMS_P1;PMS_P2;Temp;Humidity;BMP_temperature;BMP_pressure;BME280_temperature;BME280_humidity;BME280_pressure;Samples;Min_cycle;Max_cycle;Signal;HPM_P1;HPM_P2
2021/03/22 00:01:57;;;;;;;;;;;1.40;99.90;;;;;;5067161;28;20018;-65
2021/03/22 00:04:22;;;;;;;;;;;1.60;99.90;;;;;;5083187;28;19912;-65
2021/03/22 00:06:48;;;;;;;;;;;1.60;99.90;;;;;;5083719;28;19959;-65
2021/03/22 00:09:13;;;;;;;;;;;1.80;99.90;;;;;;5067420;28;19912;-65
2021/03/22 00:11:39;;;;;;;;;;;1.40;99.90;;;;;;5081976;28;19950;-65
2021/03/22 00:14:04;;;;;;;;;;;1.70;99.90;;;;;;5083265;28;19916;-65
2021/03/22 00:16:30;;;;;;;;;;;1.60;99.90;;;;;;5084187;28;20421;-65
2021/03/22 00:18:55;;;;;;;;;;;1.70;99.90;;;;;;5083480;28;19991;-65
2021/03/22 00:21:21;;;;;;;;;;;1.80;99.90;;;;;;5084669;28;19916;-65
2021/03/22 00:23:47;;;;;;;;;;;1.60;99.90;;;;;;5082248;28;19970;-65
2021/03/22 00:26:12;;;;;;;;;;;1.80;99.90;;;;;;5084024;28;20343;-65
2021/03/22 00:28:40;;;;;;;;;;;1.90;99.90;;;;;;5080966;28;19920;-65
2021/03/22 00:31:07;;;;;;;;;;;1.90;99.90;;;;;;5082957;28;19948;-65
2021/03/22 00:33:32;;;;;;;;;;;1.70;99.90;;;;;;5065764;28;20367;-65
2021/03/22 00:35:58;;;;;;;;;;;1.90;99.90;;;;;;5084302;28;19912;-65
2021/03/22 00:38:23;;;;;;;;;;;1.70;99.90;;;;;;5080267;28;19923;-65
2021/03/22 00:40:49;;;;;;;;;;;1.80;99.90;;;;;;5083825;28;19915;-65
2021/03/22 00:43:15;;;;;;;;;;;1.50;99.90;;;;;;5083935;28;19912;-65
2021/03/22 00:45:43;;;;;;;;;;;1.50;99.90;;;;;;5082152;28;20312;-65
2021/03/22 00:48:09;;;;;;;;;;;1.60;99.90;;;;;;5081324;28;19919;-65
2021/03/22 00:50:36;;;;;;;;;;;1.40;99.90;;;;;;5082210;28;19912;-65
2021/03/22 00:53:03;;;;;;;;;;;1.60;99.90;;;;;;5082849;28;19938;-65
2021/03/22 00:55:28;;;;;;;;;;;1.80;99.90;;;;;;5077664;28;19908;-65
2021/03/22 00:57:54;;;;;;;;;;;1.70;99.90;;;;;;5083806;28;19911;-65
2021/03/22 01:00:22;;;;;;;;;;;1.50;99.90;;;;;;5083128;28;20562;-66
2021/03/22 01:02:48;;;;;;;;;;;1.40;99.90;;;;;;5081627;28;20252;-65
2021/03/22 01:05:14;;;;;;;;;;;1.40;99.90;;;;;;5083215;28;19956;-65
2021/03/22 01:07:40;;;;;;;;;;;1.20;99.90;;;;;;5075639;28;19923;-65
2021/03/22 01:10:08;;;;;;;;;;;1.30;99.90;;;;;;5094004;28;19958;-65
2021/03/22 01:12:33;;;;;;;;;;;1.40;99.90;;;;;;5084159;28;19919;-65
2021/03/22 01:14:58;;;;;;;;;;;1.40;99.90;;;;;;5080433;28;20383;-65
2021/03/22 01:17:24;;;;;;;;;;;1.20;99.90;;;;;;5082753;28;19990;-65
2021/03/22 01:19:49;;;;;;;;;;;1.50;99.90;;;;;;5083701;28;19920;-65
2021/03/22 01:22:15;;;;;;;;;;;1.50;99.90;;;;;;5082025;28;20651;-65
2021/03/22 01:24:40;;;;;;;;;;;1.40;99.90;;;;;;5091952;27;19919;-65
2021/03/22 01:27:07;;;;;;;;;;;1.40;99.90;;;;;;5088671;28;20707;-66
2021/03/22 01:29:42;;;;;;;;;;;1.20;99.90;;;;;;5061226;28;19912;-65
2021/03/22 01:32:09;;;;;;;;;;;1.30;99.90;;;;;;5082432;28;19923;-65
2021/03/22 01:34:34;;;;;;;;;;;0.90;99.90;;;;;;5082892;28;20286;-65
2021/03/22 01:37:00;;;;;;;;;;;1.00;99.90;;;;;;5082306;28;19908;-65
2021/03/22 01:39:27;;;;;;;;;;;1.40;99.90;;;;;;5083307;28;19916;-65
2021/03/22 01:42:05;;;;;;;;;;;1.20;99.90;;;;;;5082480;28;20271;-65
2021/03/22 01:44:32;;;;;;;;;;;1.10;99.90;;;;;;5076197;28;20378;-64
2021/03/22 01:47:00;;;;;;;;;;;1.10;99.90;;;;;;5084066;28;19908;-65
2021/03/22 01:49:28;;;;;;;;;;;1.20;99.90;;;;;;5083502;28;19978;-65
2021/03/22 01:51:54;;;;;;;;;;;1.20;99.90;;;;;;5078408;28;19916;-65
2021/03/22 01:54:20;;;;;;;;;;;1.30;99.90;;;;;;5081839;28;19939;-65
2021/03/22 01:56:50;;;;;;;;;;;1.20;99.90;;;;;;5083226;28;20649;-65
2021/03/22 01:59:17;;;;;;;;;;;0.90;99.90;;;;;;5079432;28;20010;-65
2021/03/22 02:01:44;;;;;;;;;;;1.20;99.90;;;;;;5061702;28;19912;-65
2021/03/22 02:04:09;;;;;;;;;;;1.10;99.90;;;;;;5082648;28;19977;-64
2021/03/22 02:06:35;;;;;;;;;;;1.30;99.90;;;;;;5084231;28;20403;-64
2021/03/22 02:09:01;;;;;;;;;;;1.30;99.90;;;;;;5080958;28;20002;-64
2021/03/22 02:11:28;;;;;;;;;;;0.90;99.90;;;;;;5082902;28;19930;-64
2021/03/22 02:13:56;;;;;;;;;;;1.30;99.90;;;;;;5081671;28;19916;-64
2021/03/22 02:16:23;;;;;;;;;;;1.20;99.90;;;;;;5076710;28;19912;-64
2021/03/22 02:19:08;;;;;;;;;;;1.20;99.90;;;;;;5083716;28;19959;-64
2021/03/22 02:21:33;;;;;;;;;;;1.00;99.90;;;;;;5083003;28;19940;-65
2021/03/22 02:24:18;;;;;;;;;;;1.10;99.90;;;;;;5087238;28;20028;-67
2021/03/22 02:26:43;;;;;;;;;;;0.80;99.90;;;;;;5084759;28;20397;-67
2021/03/22 02:29:18;;;;;;;;;;;1.20;99.90;;;;;;5085326;28;19911;-66
2021/03/22 02:32:02;;;;;;;;;;;1.00;99.90;;;;;;5087045;28;20029;-67
2021/03/22 02:34:33;;;;;;;;;;;0.90;99.90;;;;;;5085819;28;20348;-66
2021/03/22 02:37:05;;;;;;;;;;;1.10;99.90;;;;;;5066422;28;19965;-66
2021/03/22 02:39:33;;;;;;;;;;;1.00;99.90;;;;;;5085304;28;20482;-66
2021/03/22 02:41:59;;;;;;;;;;;1.20;99.90;;;;;;5085515;28;19923;-66
2021/03/22 02:44:29;;;;;;;;;;;1.40;99.90;;;;;;5085262;28;19912;-66
2021/03/22 02:46:55;;;;;;;;;;;1.00;99.90;;;;;;5066649;28;19914;-66
2021/03/22 02:49:21;;;;;;;;;;;1.20;99.90;;;;;;5084108;28;19973;-67
2021/03/22 02:51:55;;;;;;;;;;;1.20;99.90;;;;;;5086921;28;20552;-67
2021/03/22 02:54:34;;;;;;;;;;;1.00;99.90;;;;;;5083670;28;20051;-66
2021/03/22 02:57:03;;;;;;;;;;;1.00;99.90;;;;;;5063508;28;19919;-67
2021/03/22 02:59:30;;;;;;;;;;;0.90;99.90;;;;;;5086718;28;20002;-67
2021/03/22 03:02:03;;;;;;;;;;;1.20;99.90;;;;;;5068515;28;19918;-67
2021/03/22 03:04:30;;;;;;;;;;;1.20;99.90;;;;;;5086699;28;19915;-67
2021/03/22 03:06:57;;;;;;;;;;;1.60;99.90;;;;;;5087123;28;19915;-67
2021/03/22 03:09:24;;;;;;;;;;;1.40;99.90;;;;;;5086895;28;19918;-65
2021/03/22 03:11:50;;;;;;;;;;;1.30;99.90;;;;;;5089353;28;20010;-65
2021/03/22 03:14:16;;;;;;;;;;;1.40;99.90;;;;;;5067088;28;20343;-64
2021/03/22 03:16:41;;;;;;;;;;;1.30;99.90;;;;;;5086764;28;19919;-65
2021/03/22 03:19:07;;;;;;;;;;;1.40;99.90;;;;;;5091999;28;19914;-64
2021/03/22 03:21:33;;;;;;;;;;;1.30;99.90;;;;;;5087383;28;19916;-64
2021/03/22 03:23:59;;;;;;;;;;;1.40;99.90;;;;;;5070703;28;19908;-65
2021/03/22 03:26:24;;;;;;;;;;;1.50;99.90;;;;;;5086914;28;19911;-65
2021/03/22 03:28:50;;;;;;;;;;;1.20;99.90;;;;;;5088747;28;19908;-64
2021/03/22 03:31:15;;;;;;;;;;;1.50;99.90;;;;;;5089592;28;19912;-65
2021/03/22 03:33:41;;;;;;;;;;;1.60;99.90;;;;;;5090215;28;19915;-65
2021/03/22 03:36:06;;;;;;;;;;;1.50;99.90;;;;;;5071354;28;20275;-65
2021/03/22 03:38:32;;;;;;;;;;;1.40;99.90;;;;;;5084260;28;19907;-65
2021/03/22 03:40:57;;;;;;;;;;;2.20;99.90;;;;;;5088093;28;19990;-65
2021/03/22 03:43:23;;;;;;;;;;;1.90;99.90;;;;;;5089086;28;19912;-64
2021/03/22 03:45:50;;;;;;;;;;;1.70;99.90;;;;;;5087705;28;19965;-65
2021/03/22 03:48:20;;;;;;;;;;;1.60;99.90;;;;;;5088257;28;19977;-64
2021/03/22 03:50:45;;;;;;;;;;;1.60;99.90;;;;;;5067614;28;19992;-65
2021/03/22 03:53:11;;;;;;;;;;;1.40;99.90;;;;;;5088006;28;19951;-65
2021/03/22 03:55:37;;;;;;;;;;;1.90;99.90;;;;;;5087185;28;19916;-66
2021/03/22 03:58:03;;;;;;;;;;;1.50;99.90;;;;;;5086257;28;19977;-67
2021/03/22 04:00:31;;;;;;;;;;;1.60;99.90;;;;;;5088423;28;20429;-64
2021/03/22 04:02:57;;;;;;;;;;;1.50;99.90;;;;;;5066480;28;20134;-64
2021/03/22 04:05:24;;;;;;;;;;;1.60;99.90;;;;;;5066101;28;19955;-65
2021/03/22 04:07:49;;;;;;;;;;;1.70;99.90;;;;;;5084726;28;20301;-65
2021/03/22 04:10:15;;;;;;;;;;;1.70;99.90;;;;;;5081688;28;20616;-65
2021/03/22 04:12:41;;;;;;;;;;;1.60;99.90;;;;;;5085207;28;19915;-65
2021/03/22 04:15:08;;;;;;;;;;;1.60;99.90;;;;;;5065097;28;19923;-65
2021/03/22 04:17:35;;;;;;;;;;;1.50;99.90;;;;;;5083747;28;20666;-65
2021/03/22 04:20:02;;;;;;;;;;;1.90;99.90;;;;;;5082125;28;19912;-65
2021/03/22 04:22:28;;;;;;;;;;;1.80;99.90;;;;;;5085140;28;19918;-64
2021/03/22 04:24:53;;;;;;;;;;;1.60;99.90;;;;;;5065643;28;19908;-64
2021/03/22 04:27:19;;;;;;;;;;;1.90;99.90;;;;;;5083025;28;20386;-65
2021/03/22 04:29:44;;;;;;;;;;;1.70;99.90;;;;;;5085937;28;20272;-65
2021/03/22 04:32:10;;;;;;;;;;;2.10;99.90;;;;;;5087115;28;19918;-65
2021/03/22 04:34:36;;;;;;;;;;;1.90;99.90;;;;;;5089295;28;19923;-67
2021/03/22 04:37:01;;;;;;;;;;;2.00;99.90;;;;;;5088902;28;20427;-66
2021/03/22 04:39:29;;;;;;;;;;;1.60;99.90;;;;;;5081245;28;19923;-67
2021/03/22 04:41:54;;;;;;;;;;;1.90;99.90;;;;;;5084577;28;19937;-66
2021/03/22 04:44:20;;;;;;;;;;;1.90;99.90;;;;;;5085008;28;19916;-67
2021/03/22 04:46:45;;;;;;;;;;;1.60;99.90;;;;;;5085659;28;20757;-67
2021/03/22 04:49:11;;;;;;;;;;;1.80;99.90;;;;;;5063805;28;20016;-67
2021/03/22 04:51:36;;;;;;;;;;;1.90;99.90;;;;;;5082057;28;19978;-64
2021/03/22 04:54:02;;;;;;;;;;;2.00;99.90;;;;;;5082309;28;19911;-64
2021/03/22 04:56:28;;;;;;;;;;;0.90;99.90;;;;;;5078543;28;19912;-63
2021/03/22 04:58:53;;;;;;;;;;;1.80;99.90;;;;;;5083111;28;19912;-64
2021/03/22 05:01:19;;;;;;;;;;;1.60;99.90;;;;;;5082263;28;19911;-63
2021/03/22 05:03:44;;;;;;;;;;;1.80;99.90;;;;;;5083118;28;20267;-65
2021/03/22 05:06:10;;;;;;;;;;;1.40;99.90;;;;;;5082966;28;19912;-64
2021/03/22 05:08:35;;;;;;;;;;;1.50;99.90;;;;;;5084001;28;19947;-64
2021/03/22 05:11:01;;;;;;;;;;;1.60;99.90;;;;;;5079500;28;19916;-64
2021/03/22 05:13:28;;;;;;;;;;;1.60;99.90;;;;;;5086576;28;20679;-65
2021/03/22 05:15:54;;;;;;;;;;;1.80;99.90;;;;;;5054931;28;19957;-64
2021/03/22 05:18:20;;;;;;;;;;;1.40;99.90;;;;;;5082537;28;19911;-64
2021/03/22 05:20:50;;;;;;;;;;;1.80;99.90;;;;;;5061743;28;20279;-64
2021/03/22 05:23:17;;;;;;;;;;;2.30;99.90;;;;;;5063725;28;19919;-64
2021/03/22 05:25:43;;;;;;;;;;;2.10;99.90;;;;;;5082505;28;20367;-63
2021/03/22 05:28:09;;;;;;;;;;;1.70;99.90;;;;;;5077087;28;19950;-64
2021/03/22 05:30:35;;;;;;;;;;;1.60;99.90;;;;;;5064194;28;19916;-66
2021/03/22 05:33:02;;;;;;;;;;;1.80;99.90;;;;;;5065251;28;20366;-66
2021/03/22 05:35:28;;;;;;;;;;;1.90;99.90;;;;;;5061835;28;19927;-65
2021/03/22 05:37:54;;;;;;;;;;;1.90;99.90;;;;;;5087062;28;20255;-66
2021/03/22 05:40:26;;;;;;;;;;;1.80;99.90;;;;;;5080732;28;20015;-66
2021/03/22 05:42:57;;;;;;;;;;;1.70;99.90;;;;;;5085165;28;20371;-66
2021/03/22 05:45:35;;;;;;;;;;;2.00;99.90;;;;;;5080438;28;19922;-66
2021/03/22 05:48:19;;;;;;;;;;;2.20;99.90;;;;;;5063426;28;19992;-66
2021/03/22 05:51:02;;;;;;;;;;;2.20;99.90;;;;;;5066552;28;19923;-66
2021/03/22 05:53:42;;;;;;;;;;;2.20;99.90;;;;;;5083238;28;20037;-66
2021/03/22 05:56:17;;;;;;;;;;;2.10;99.90;;;;;;5080722;28;20015;-67
2021/03/22 05:58:53;;;;;;;;;;;2.10;99.90;;;;;;5083623;28;19912;-67
2021/03/22 06:01:34;;;;;;;;;;;2.10;99.90;;;;;;5082289;28;19912;-67
2021/03/22 06:04:02;;;;;;;;;;;2.00;99.90;;;;;;5080008;28;20189;-66
2021/03/22 06:06:41;;;;;;;;;;;2.20;99.90;;;;;;5082409;28;19912;-66
2021/03/22 06:09:25;;;;;;;;;;;2.10;99.90;;;;;;5065441;28;19916;-66
2021/03/22 06:11:51;;;;;;;;;;;2.00;99.90;;;;;;5074538;28;20010;-67
2021/03/22 06:14:24;;;;;;;;;;;2.20;99.90;;;;;;5080393;28;20038;-66
2021/03/22 06:16:58;;;;;;;;;;;2.10;99.90;;;;;;5080843;28;20445;-66
2021/03/22 06:19:24;;;;;;;;;;;2.10;99.90;;;;;;5080734;28;19916;-65
2021/03/22 06:21:50;;;;;;;;;;;2.40;99.90;;;;;;5083783;28;19927;-68
2021/03/22 06:24:17;;;;;;;;;;;2.60;99.90;;;;;;5074869;28;19908;-66
2021/03/22 06:26:45;;;;;;;;;;;2.80;99.90;;;;;;5061692;28;19912;-66
2021/03/22 06:29:28;;;;;;;;;;;2.50;99.90;;;;;;5082122;28;20421;-67
2021/03/22 06:31:56;;;;;;;;;;;2.30;99.90;;;;;;5061935;28;19916;-65
2021/03/22 06:34:34;;;;;;;;;;;2.30;99.90;;;;;;5086535;28;19915;-67
2021/03/22 06:36:59;;;;;;;;;;;2.30;99.90;;;;;;5082179;28;19919;-65
2021/03/22 06:39:25;;;;;;;;;;;2.60;99.90;;;;;;5095164;28;19908;-66
2021/03/22 06:41:53;;;;;;;;;;;2.50;99.90;;;;;;5086553;28;19912;-67
2021/03/22 06:44:36;;;;;;;;;;;2.50;99.90;;;;;;5081632;28;19926;-66
2021/03/22 06:47:13;;;;;;;;;;;3.00;99.90;;;;;;5068759;28;19912;-68
2021/03/22 06:49:45;;;;;;;;;;;2.40;99.90;;;;;;5084322;28;20392;-66
2021/03/22 06:52:16;;;;;;;;;;;2.30;99.90;;;;;;5081327;28;19957;-67
2021/03/22 06:54:45;;;;;;;;;;;2.50;99.90;;;;;;5080759;28;20347;-67
2021/03/22 06:57:21;;;;;;;;;;;2.60;99.90;;;;;;5063497;28;19923;-66
2021/03/22 07:00:06;;;;;;;;;;;2.70;99.90;;;;;;5065424;28;19977;-66
2021/03/22 07:02:50;;;;;;;;;;;2.60;99.90;;;;;;5078130;28;19923;-67
2021/03/22 07:05:21;;;;;;;;;;;2.50;99.90;;;;;;5081818;28;20511;-66
2021/03/22 07:07:51;;;;;;;;;;;2.60;99.90;;;;;;5080669;28;20336;-66
2021/03/22 07:10:19;;;;;;;;;;;2.30;99.90;;;;;;5085894;28;20211;-66
2021/03/22 07:12:44;;;;;;;;;;;2.50;99.90;;;;;;5083461;28;20340;-66
2021/03/22 07:15:36;;;;;;;;;;;2.60;99.90;;;;;;5086095;28;20026;-66
2021/03/22 07:18:09;;;;;;;;;;;2.50;99.90;;;;;;5065571;28;20359;-66
2021/03/22 07:20:35;;;;;;;;;;;2.40;99.90;;;;;;5083831;28;19912;-66
2021/03/22 07:23:25;;;;;;;;;;;2.60;99.90;;;;;;5086254;28;19953;-67
2021/03/22 07:25:55;;;;;;;;;;;2.60;99.90;;;;;;5082418;28;19908;-67
2021/03/22 07:28:41;;;;;;;;;;;2.60;99.90;;;;;;5085998;28;19923;-66
2021/03/22 07:31:14;;;;;;;;;;;2.60;99.90;;;;;;5082810;28;19938;-66
2021/03/22 07:33:48;;;;;;;;;;;2.50;99.90;;;;;;5088112;28;19916;-67
2021/03/22 07:36:21;;;;;;;;;;;2.40;99.90;;;;;;5085071;28;20351;-66
2021/03/22 07:38:56;;;;;;;;;;;2.50;99.90;;;;;;5087548;28;20007;-67
2021/03/22 07:41:24;;;;;;;;;;;2.70;99.90;;;;;;5083697;28;19954;-67
2021/03/22 07:43:57;;;;;;;;;;;2.40;99.90;;;;;;5067754;28;19927;-67
2021/03/22 07:46:25;;;;;;;;;;;2.90;99.90;;;;;;5083994;28;20504;-66
2021/03/22 07:49:02;;;;;;;;;;;2.80;99.90;;;;;;5076257;28;19912;-65
2021/03/22 07:51:37;;;;;;;;;;;2.70;99.90;;;;;;5085205;28;19946;-67
2021/03/22 07:54:28;;;;;;;;;;;2.70;99.90;;;;;;5082495;28;19916;-67
2021/03/22 07:56:57;;;;;;;;;;;2.80;99.90;;;;;;5083393;28;19998;-67
2021/03/22 07:59:30;;;;;;;;;;;2.90;99.90;;;;;;5065323;28;19916;-66
2021/03/22 08:02:14;;;;;;;;;;;3.10;99.90;;;;;;5085182;28;19922;-67
2021/03/22 08:04:40;;;;;;;;;;;3.10;99.90;;;;;;5065725;28;19916;-67
2021/03/22 08:07:08;;;;;;;;;;;3.30;99.90;;;;;;5083595;28;19919;-67
2021/03/22 08:09:39;;;;;;;;;;;3.20;99.90;;;;;;5081414;28;20340;-66
2021/03/22 08:12:10;;;;;;;;;;;3.10;99.90;;;;;;5084607;28;20464;-68
2021/03/22 08:14:37;;;;;;;;;;;2.90;99.90;;;;;;5083054;28;19938;-68
2021/03/22 08:17:08;;;;;;;;;;;3.00;99.90;;;;;;5063032;28;19912;-67
2021/03/22 08:19:43;;;;;;;;;;;2.70;99.90;;;;;;5082230;28;20439;-67
2021/03/22 08:22:21;;;;;;;;;;;2.60;99.90;;;;;;5082389;28;19908;-67
2021/03/22 08:24:47;;;;;;;;;;;2.60;99.90;;;;;;5081707;28;19916;-67
2021/03/22 08:27:17;;;;;;;;;;;2.70;99.90;;;;;;5082768;28;19923;-66
2021/03/22 08:29:52;;;;;;;;;;;2.50;99.90;;;;;;5082645;28;19912;-67
2021/03/22 08:32:32;;;;;;;;;;;2.60;99.90;;;;;;5079310;28;19915;-67
2021/03/22 08:35:05;;;;;;;;;;;2.70;99.90;;;;;;5083844;28;19991;-66
2021/03/22 08:37:42;;;;;;;;;;;2.50;99.90;;;;;;5083506;28;19922;-67
2021/03/22 08:40:16;;;;;;;;;;;2.40;99.90;;;;;;5083580;28;19912;-67
2021/03/22 08:42:45;;;;;;;;;;;2.50;99.90;;;;;;5087344;28;19965;-68
2021/03/22 08:45:30;;;;;;;;;;;3.00;99.90;;;;;;5083011;28;19995;-68
2021/03/22 08:47:59;;;;;;;;;;;2.40;99.90;;;;;;5080120;28;20003;-68
2021/03/22 08:50:26;;;;;;;;;;;2.70;99.90;;;;;;5079798;28;20741;-68
2021/03/22 08:52:55;;;;;;;;;;;2.30;99.90;;;;;;5083470;28;19916;-68
2021/03/22 08:55:21;;;;;;;;;;;2.30;99.90;;;;;;5081744;28;19908;-68
2021/03/22 08:57:59;;;;;;;;;;;2.20;99.90;;;;;;5083970;28;20438;-68
2021/03/22 09:00:30;;;;;;;;;;;2.30;99.90;;;;;;5088044;28;19934;-68
2021/03/22 09:02:57;;;;;;;;;;;2.40;99.90;;;;;;5069828;28;19911;-68
2021/03/22 09:05:24;;;;;;;;;;;2.60;99.90;;;;;;5076414;28;20007;-68
2021/03/22 09:07:50;;;;;;;;;;;2.30;99.90;;;;;;5065167;28;19915;-68
2021/03/22 09:10:27;;;;;;;;;;;2.50;99.90;;;;;;5064481;28;20264;-68
2021/03/22 09:13:04;;;;;;;;;;;2.20;99.90;;;;;;5056315;28;20426;-67
2021/03/22 09:15:39;;;;;;;;;;;2.50;99.90;;;;;;5063440;28;19919;-67
2021/03/22 09:18:05;;;;;;;;;;;2.90;99.90;;;;;;5081012;28;20735;-68
2021/03/22 09:20:32;;;;;;;;;;;2.40;99.90;;;;;;5083173;28;19998;-68
2021/03/22 09:22:57;;;;;;;;;;;2.70;99.90;;;;;;5078482;28;19999;-68
2021/03/22 09:25:42;;;;;;;;;;;3.20;99.90;;;;;;5080824;28;19995;-68
2021/03/22 09:28:26;;;;;;;;;;;2.70;99.90;;;;;;5082935;28;19994;-68
2021/03/22 09:30:59;;;;;;;;;;;2.70;99.90;;;;;;5080937;28;19912;-66
2021/03/22 09:33:43;;;;;;;;;;;2.70;99.90;;;;;;5078809;28;20018;-68
2021/03/22 09:36:29;;;;;;;;;;;2.60;99.90;;;;;;5082771;28;19995;-68
2021/03/22 09:38:55;;;;;;;;;;;2.60;99.90;;;;;;5084893;28;19998;-68
2021/03/22 09:41:40;;;;;;;;;;;2.40;99.90;;;;;;5081831;28;19941;-67
2021/03/22 09:44:08;;;;;;;;;;;2.40;99.90;;;;;;5064188;28;19923;-66
2021/03/22 09:46:34;;;;;;;;;;;2.50;99.90;;;;;;5078939;28;19947;-68
2021/03/22 09:49:14;;;;;;;;;;;2.60;99.90;;;;;;5084486;28;19908;-68
2021/03/22 09:51:48;;;;;;;;;;;2.40;99.90;;;;;;5094332;28;19912;-68
2021/03/22 09:54:18;;;;;;;;;;;2.80;99.90;;;;;;5080709;28;19969;-68
2021/03/22 09:57:04;;;;;;;;;;;2.90;99.90;;;;;;5062053;28;20386;-68
2021/03/22 09:59:38;;;;;;;;;;;3.10;99.90;;;;;;5081586;28;19924;-68
2021/03/22 10:02:22;;;;;;;;;;;3.20;99.90;;;;;;5080687;28;19912;-68
2021/03/22 10:05:07;;;;;;;;;;;3.30;99.90;;;;;;5078860;28;19912;-68
2021/03/22 10:07:34;;;;;;;;;;;3.60;99.90;;;;;;5082832;28;20305;-68
2021/03/22 10:10:23;;;;;;;;;;;4.60;99.90;;;;;;5081185;28;19966;-68
2021/03/22 10:12:55;;;;;;;;;;;3.90;99.90;;;;;;5074808;28;19916;-68
2021/03/22 10:15:28;;;;;;;;;;;3.90;99.90;;;;;;5062926;28;19912;-68
2021/03/22 10:18:06;;;;;;;;;;;3.70;99.90;;;;;;5080892;28;19983;-68
2021/03/22 10:20:43;;;;;;;;;;;3.90;99.90;;;;;;5084067;28;19912;-68
2021/03/22 10:23:24;;;;;;;;;;;4.20;99.90;;;;;;5085327;28;20678;-67
2021/03/22 10:25:52;;;;;;;;;;;4.10;99.90;;;;;;5078004;28;20359;-68
2021/03/22 10:28:19;;;;;;;;;;;4.20;99.90;;;;;;5082103;28;20511;-67
2021/03/22 10:30:59;;;;;;;;;;;4.30;99.90;;;;;;5080607;28;20002;-67
2021/03/22 10:33:25;;;;;;;;;;;4.20;99.90;;;;;;5080879;28;20416;-68
2021/03/22 10:35:53;;;;;;;;;;;3.80;99.90;;;;;;5085368;28;20451;-68
2021/03/22 10:38:22;;;;;;;;;;;4.20;99.90;;;;;;5083246;28;19979;-68
2021/03/22 10:40:48;;;;;;;;;;;4.10;99.90;;;;;;5081908;28;20256;-67
2021/03/22 10:43:22;;;;;;;;;;;4.20;99.90;;;;;;5087217;28;19912;-67
2021/03/22 10:45:48;;;;;;;;;;;4.00;99.90;;;;;;5084224;28;19919;-68
2021/03/22 10:48:25;;;;;;;;;;;4.10;99.90;;;;;;5085431;28;19912;-67
2021/03/22 10:51:07;;;;;;;;;;;3.80;99.90;;;;;;5079189;28;20415;-67
2021/03/22 10:53:33;;;;;;;;;;;3.10;99.90;;;;;;5089741;28;20026;-66
2021/03/22 10:56:17;;;;;;;;;;;3.90;99.90;;;;;;5083178;28;20038;-66
2021/03/22 10:58:43;;;;;;;;;;;3.70;99.90;;;;;;5082944;28;19918;-66
2021/03/22 11:01:09;;;;;;;;;;;3.70;99.90;;;;;;5087358;28;19912;-67
2021/03/22 11:03:35;;;;;;;;;;;3.80;99.90;;;;;;5087699;28;19912;-65
2021/03/22 11:06:08;;;;;;;;;;;3.80;99.90;;;;;;5083204;28;19912;-66
2021/03/22 11:08:37;;;;;;;;;;;3.70;99.90;;;;;;5085936;28;19912;-65
2021/03/22 11:11:02;;;;;;;;;;;3.90;99.90;;;;;;5086073;28;19912;-65
2021/03/22 11:13:29;;;;;;;;;;;3.70;99.90;;;;;;5086059;28;19943;-65
2021/03/22 11:15:55;;;;;;;;;;;3.60;99.90;;;;;;5080169;28;20590;-66
2021/03/22 11:18:21;;;;;;;;;;;3.60;99.90;;;;;;5081456;28;19916;-66
2021/03/22 11:20:51;;;;;;;;;;;4.10;99.90;;;;;;5082183;28;19959;-67
2021/03/22 11:23:18;;;;;;;;;;;3.50;99.90;;;;;;5067386;28;20390;-67
2021/03/22 11:25:44;;;;;;;;;;;3.60;99.90;;;;;;5086329;28;19961;-68
2021/03/22 11:28:12;;;;;;;;;;;4.80;99.90;;;;;;5067531;28;19919;-67
2021/03/22 11:30:39;;;;;;;;;;;3.30;99.90;;;;;;5085186;28;19915;-67
2021/03/22 11:33:08;;;;;;;;;;;3.60;99.90;;;;;;5087018;28;19923;-70
2021/03/22 11:35:33;;;;;;;;;;;3.20;99.90;;;;;;5078717;28;19911;-68
2021/03/22 11:38:02;;;;;;;;;;;3.40;99.90;;;;;;5083709;28;19923;-68
2021/03/22 11:40:28;;;;;;;;;;;3.50;99.90;;;;;;5066346;28;19919;-69
2021/03/22 11:42:56;;;;;;;;;;;3.50;99.90;;;;;;5065301;28;19912;-67
2021/03/22 11:45:41;;;;;;;;;;;3.60;99.90;;;;;;5085787;28;19998;-68
2021/03/22 11:48:21;;;;;;;;;;;3.50;99.90;;;;;;5083218;28;19912;-68
2021/03/22 11:50:58;;;;;;;;;;;3.90;99.90;;;;;;5082702;28;19916;-68
2021/03/22 11:53:25;;;;;;;;;;;3.90;99.90;;;;;;5083083;28;19941;-68
2021/03/22 11:55:52;;;;;;;;;;;4.20;99.90;;;;;;5083585;28;19912;-68
2021/03/22 11:58:29;;;;;;;;;;;4.50;99.90;;;;;;5066241;28;20452;-68
2021/03/22 12:00:55;;;;;;;;;;;4.60;99.90;;;;;;5083033;28;19911;-67
2021/03/22 12:03:29;;;;;;;;;;;4.90;99.90;;;;;;5084300;28;20002;-66
2021/03/22 12:06:11;;;;;;;;;;;4.40;99.90;;;;;;5079276;28;20402;-67
2021/03/22 12:08:47;;;;;;;;;;;4.10;99.90;;;;;;5083732;28;19939;-67
2021/03/22 12:11:15;;;;;;;;;;;4.10;99.90;;;;;;5082410;28;20469;-67
2021/03/22 12:13:41;;;;;;;;;;;4.20;99.90;;;;;;5083658;28;19916;-67
2021/03/22 12:16:07;;;;;;;;;;;4.40;99.90;;;;;;5088000;28;20589;-68
2021/03/22 12:18:33;;;;;;;;;;;4.10;99.90;;;;;;5065569;28;19934;-69
2021/03/22 12:20:59;;;;;;;;;;;4.10;99.90;;;;;;5084462;28;19919;-70
2021/03/22 12:23:25;;;;;;;;;;;4.40;99.90;;;;;;5084665;28;19908;-69
2021/03/22 12:25:51;;;;;;;;;;;4.20;99.90;;;;;;5081765;28;19912;-69
2021/03/22 12:28:16;;;;;;;;;;;4.40;99.90;;;;;;5086759;28;20421;-70
2021/03/22 12:30:42;;;;;;;;;;;4.50;99.90;;;;;;5082660;28;19916;-69
2021/03/22 12:33:13;;;;;;;;;;;4.40;99.90;;;;;;5085935;28;20011;-67
2021/03/22 12:35:39;;;;;;;;;;;4.70;99.90;;;;;;5084437;28;20428;-69
2021/03/22 12:38:06;;;;;;;;;;;4.50;99.90;;;;;;5066990;28;19912;-71
2021/03/22 12:40:31;;;;;;;;;;;4.70;99.90;;;;;;5084552;28;19941;-67
2021/03/22 12:42:58;;;;;;;;;;;4.80;99.90;;;;;;5083765;28;19942;-70
2021/03/22 12:45:26;;;;;;;;;;;4.90;99.90;;;;;;5083867;28;20002;-70
2021/03/22 12:47:52;;;;;;;;;;;4.80;99.90;;;;;;5083516;28;19952;-69
2021/03/22 12:50:21;;;;;;;;;;;5.30;99.90;;;;;;5085327;28;19911;-70
2021/03/22 12:52:47;;;;;;;;;;;4.50;99.90;;;;;;5078532;28;20750;-70
2021/03/22 12:55:13;;;;;;;;;;;4.50;99.90;;;;;;5082961;28;20007;-68
2021/03/22 12:57:39;;;;;;;;;;;4.50;99.90;;;;;;5074268;28;19994;-69
2021/03/22 13:00:05;;;;;;;;;;;4.70;99.90;;;;;;5082755;28;20556;-68
2021/03/22 13:02:32;;;;;;;;;;;4.40;99.90;;;;;;5065693;28;19978;-69
2021/03/22 13:04:58;;;;;;;;;;;4.70;99.90;;;;;;5083245;28;20718;-68
2021/03/22 13:07:23;;;;;;;;;;;4.70;99.90;;;;;;5079787;28;19918;-69
2021/03/22 13:09:49;;;;;;;;;;;4.70;99.90;;;;;;5081106;28;20916;-70
2021/03/22 13:12:22;;;;;;;;;;;5.00;99.90;;;;;;5081810;28;19920;-69
2021/03/22 13:14:48;;;;;;;;;;;4.80;99.90;;;;;;5082554;28;19969;-67
2021/03/22 13:17:14;;;;;;;;;;;5.00;99.90;;;;;;5083504;28;19912;-70
2021/03/22 13:19:40;;;;;;;;;;;5.00;99.90;;;;;;5062971;28;19912;-68
2021/03/22 13:22:10;;;;;;;;;;;5.00;99.90;;;;;;5082909;28;19908;-68
2021/03/22 13:24:36;;;;;;;;;;;5.00;99.90;;;;;;5081888;28;19916;-69
2021/03/22 13:27:01;;;;;;;;;;;5.40;99.90;;;;;;5081273;28;19912;-68
2021/03/22 13:29:27;;;;;;;;;;;5.20;99.90;;;;;;5083087;28;19915;-69
2021/03/22 13:31:52;;;;;;;;;;;5.10;99.90;;;;;;5080884;28;19911;-67
2021/03/22 13:34:18;;;;;;;;;;;5.30;99.90;;;;;;5087309;28;19920;-70
2021/03/22 13:36:44;;;;;;;;;;;4.80;99.90;;;;;;5087090;28;19992;-68
2021/03/22 13:39:10;;;;;;;;;;;5.10;99.90;;;;;;5067850;28;19908;-69
2021/03/22 13:41:44;;;;;;;;;;;5.00;99.90;;;;;;5067166;28;20345;-69
2021/03/22 13:44:10;;;;;;;;;;;4.90;99.90;;;;;;5080151;28;19981;-67
2021/03/22 13:46:36;;;;;;;;;;;4.70;99.90;;;;;;5085497;28;19912;-67
2021/03/22 13:49:02;;;;;;;;;;;4.60;99.90;;;;;;5067917;28;19911;-69
2021/03/22 13:51:33;;;;;;;;;;;4.50;99.90;;;;;;5081564;28;20534;-69
2021/03/22 13:53:59;;;;;;;;;;;4.30;99.90;;;;;;5084375;28;19915;-69
2021/03/22 13:56:25;;;;;;;;;;;4.60;99.90;;;;;;5080773;28;20389;-70
2021/03/22 13:58:51;;;;;;;;;;;5.00;99.90;;;;;;5086559;28;19912;-70
2021/03/22 14:01:16;;;;;;;;;;;4.80;99.90;;;;;;5088276;28;19915;-67
2021/03/22 14:03:43;;;;;;;;;;;5.00;99.90;;;;;;5083367;28;20464;-69
2021/03/22 14:06:09;;;;;;;;;;;4.30;99.90;;;;;;5085788;28;19908;-68
2021/03/22 14:08:34;;;;;;;;;;;4.80;99.90;;;;;;5082355;28;20290;-68
2021/03/22 14:11:00;;;;;;;;;;;4.70;99.90;;;;;;5081407;28;19923;-68
2021/03/22 14:13:25;;;;;;;;;;;4.70;99.90;;;;;;5084159;28;20451;-67
2021/03/22 14:15:52;;;;;;;;;;;4.30;99.90;;;;;;5084411;28;19912;-66
2021/03/22 14:18:19;;;;;;;;;;;5.00;99.90;;;;;;5090877;28;19972;-69
2021/03/22 14:20:45;;;;;;;;;;;4.40;99.90;;;;;;5071609;28;19919;-69
2021/03/22 14:23:12;;;;;;;;;;;4.50;99.90;;;;;;5095129;28;19916;-68
2021/03/22 14:25:38;;;;;;;;;;;4.40;99.90;;;;;;5086133;28;19977;-69
2021/03/22 14:28:04;;;;;;;;;;;4.30;99.90;;;;;;5080872;28;19911;-69
2021/03/22 14:30:32;;;;;;;;;;;4.30;99.90;;;;;;5090272;28;19966;-68
2021/03/22 14:32:58;;;;;;;;;;;4.60;99.90;;;;;;5088092;28;20010;-69
2021/03/22 14:35:24;;;;;;;;;;;4.50;99.90;;;;;;5088632;28;19990;-68
2021/03/22 14:37:50;;;;;;;;;;;4.60;99.90;;;;;;5083852;28;19951;-69
2021/03/22 14:40:16;;;;;;;;;;;5.10;99.90;;;;;;5082924;28;20053;-69
2021/03/22 14:42:41;;;;;;;;;;;4.40;99.90;;;;;;5084832;28;19915;-69
2021/03/22 14:45:08;;;;;;;;;;;5.10;99.90;;;;;;5084322;28;19915;-68